Time;durP1;ratioP1;P1;durP2;ratioP2;P2;SDS_P1;SDS_P2;PMS_P1;PMS_P2;Temp;Humidity;BMP_temperature;BMP_pressure;BME280_temperature;BME280_humidity;BME280_pressure;Samples;Min_cycle;Max_cycle;Signal;HPM_P1;HPM_P2
2022/11/05 00:10:34;;;;;;;18.05;14.40;;;16.50;99.90;;;;;;4588222;19;19999;-32
2022/11/05 00:17:39;;;;;;;19.42;14.05;;;16.50;99.90;;;;;;4589518;19;20021;-33
2022/11/05 00:19:10;;;;;;;18.75;13.85;;;16.50;99.90;;;;;;4590079;19;20106;-35
2022/11/05 00:20:48;;;;;;;15.95;13.20;;;16.50;99.90;;;;;;4588000;19;20014;-32
2022/11/05 00:26:02;;;;;;;18.30;13.70;;;16.40;99.90;;;;;;4589619;19;20030;-32
2022/11/05 00:27:33;;;;;;;15.88;13.30;;;16.40;99.90;;;;;;4588297;19;20065;-33
2022/11/05 00:29:04;;;;;;;17.60;13.80;;;16.40;99.90;;;;;;4588813;19;20104;-33
2022/11/05 00:30:35;;;;;;;17.40;13.80;;;16.40;99.90;;;;;;4586464;19;20014;-33
2022/11/05 00:32:06;;;;;;;17.38;13.35;;;16.40;99.90;;;;;;4588067;19;20029;-33
2022/11/05 00:33:38;;;;;;;17.63;12.88;;;16.40;99.90;;;;;;4589371;19;20444;-33
2022/11/05 00:35:09;;;;;;;16.88;13.05;;;16.40;99.90;;;;;;4589512;19;20036;-33
2022/11/05 00:36:40;;;;;;;16.08;13.43;;;16.40;99.90;;;;;;4588957;19;20018;-34
2022/11/05 00:38:11;;;;;;;18.95;13.75;;;16.40;99.90;;;;;;4589118;19;20018;-33
2022/11/05 00:39:42;;;;;;;15.23;12.25;;;16.40;99.90;;;;;;4588551;19;20037;-33
2022/11/05 00:41:13;;;;;;;15.93;12.18;;;16.40;99.90;;;;;;4589070;19;20330;-32
2022/11/05 00:46:23;;;;;;;16.17;12.20;;;16.40;99.90;;;;;;4589331;19;20325;-34
2022/11/05 00:49:44;;;;;;;14.25;12.27;;;16.40;99.90;;;;;;4588532;19;20014;-34
2022/11/05 00:51:15;;;;;;;14.57;12.25;;;16.40;99.90;;;;;;4588948;19;20011;-35
2022/11/05 00:52:59;;;;;;;15.02;13.00;;;16.40;99.90;;;;;;4589228;19;20362;-33
2022/11/05 00:54:30;;;;;;;17.95;13.32;;;16.40;99.90;;;;;;4587934;19;20014;-32
2022/11/05 00:56:01;;;;;;;15.80;13.20;;;16.40;99.90;;;;;;4591431;19;20014;-33
2022/11/05 00:57:32;;;;;;;16.88;13.80;;;16.40;99.90;;;;;;4592522;19;20011;-32
2022/11/05 00:59:03;;;;;;;17.63;13.00;;;16.40;99.90;;;;;;4593366;19;20015;-33
2022/11/05 01:00:37;;;;;;;17.67;13.07;;;16.40;99.90;;;;;;4591487;19;20007;-32
2022/11/05 01:02:08;;;;;;;16.45;12.65;;;16.40;99.90;;;;;;4592231;19;20006;-35
2022/11/05 01:03:39;;;;;;;16.58;12.40;;;16.40;99.90;;;;;;4592973;19;20014;-35
2022/11/05 01:05:10;;;;;;;15.77;12.10;;;16.40;99.90;;;;;;4443369;19;2899041;-33
2022/11/05 01:06:42;;;;;;;;;;;16.40;99.90;;;;;;4593904;19;20015;-33
2022/11/05 01:08:13;;;;;;;17.05;11.93;;;16.40;99.90;;;;;;4593369;19;20008;-32
2022/11/05 01:09:44;;;;;;;19.55;13.30;;;16.40;99.90;;;;;;4594016;19;20460;-35
2022/11/05 01:11:31;;;;;;;17.17;12.60;;;16.40;99.90;;;;;;4594590;19;20010;-34
2022/11/05 01:13:03;;;;;;;14.82;12.13;;;16.40;99.90;;;;;;4594354;19;20006;-34
2022/11/05 01:14:35;;;;;;;15.02;13.00;;;16.40;99.90;;;;;;4594327;19;20034;-35
2022/11/05 01:16:07;;;;;;;16.27;11.95;;;16.40;99.90;;;;;;4594095;19;20033;-33
2022/11/05 01:17:38;;;;;;;18.95;12.75;;;16.40;99.90;;;;;;4591562;19;20035;-33
2022/11/05 01:19:10;;;;;;;18.98;12.25;;;16.40;99.90;;;;;;4593146;19;20014;-34
2022/11/05 01:20:41;;;;;;;18.08;12.52;;;16.40;99.90;;;;;;4593976;19;20015;-32
2022/11/05 01:22:12;;;;;;;15.93;11.75;;;16.40;99.90;;;;;;4593141;19;20006;-33
2022/11/05 01:23:43;;;;;;;15.07;12.13;;;16.40;99.90;;;;;;4593370;19;20007;-34
2022/11/05 01:25:14;;;;;;;18.65;12.93;;;16.40;99.90;;;;;;4593344;19;20027;-34
2022/11/05 01:26:45;;;;;;;15.15;12.38;;;16.30;99.90;;;;;;4594209;19;20073;-33
2022/11/05 01:28:16;;;;;;;17.58;13.40;;;16.40;99.90;;;;;;4593769;19;20011;-34
2022/11/05 01:29:47;;;;;;;18.10;12.45;;;16.30;99.90;;;;;;4593737;19;20015;-34
2022/11/05 01:31:19;;;;;;;14.98;11.82;;;16.40;99.90;;;;;;4591199;19;20014;-34
2022/11/05 01:32:50;;;;;;;15.85;12.00;;;16.40;99.90;;;;;;4592727;19;20010;-33
2022/11/05 01:34:21;;;;;;;15.23;12.43;;;16.40;99.90;;;;;;4592824;19;20017;-32
2022/11/05 01:35:52;;;;;;;18.70;13.98;;;16.30;99.90;;;;;;4592335;19;20063;-32
2022/11/05 01:37:23;;;;;;;16.65;13.10;;;16.30;99.90;;;;;;4592669;19;20014;-35
2022/11/05 01:38:54;;;;;;;16.05;12.85;;;16.40;99.90;;;;;;4593632;19;20460;-32
2022/11/05 01:40:25;;;;;;;17.05;12.80;;;16.30;99.90;;;;;;4594248;19;20011;-32
2022/11/05 01:41:57;;;;;;;17.67;12.73;;;16.30;99.90;;;;;;4592319;19;20014;-33
2022/11/05 01:43:47;;;;;;;16.80;11.95;;;16.30;99.90;;;;;;4593011;19;20010;-34
2022/11/05 01:45:21;;;;;;;15.93;12.15;;;16.40;99.90;;;;;;4593983;19;20014;-32
2022/11/05 01:46:52;;;;;;;17.65;12.82;;;16.30;99.90;;;;;;4593084;19;20011;-34
2022/11/05 01:48:30;;;;;;;18.45;12.93;;;16.30;99.90;;;;;;4593329;19;19999;-32
2022/11/05 01:50:09;;;;;;;16.90;13.20;;;16.30;99.90;;;;;;4591798;19;20357;-33
2022/11/05 01:51:40;;;;;;;18.02;14.15;;;16.30;99.90;;;;;;4592526;19;20006;-34
2022/11/05 01:53:30;;;;;;;17.73;13.00;;;16.30;99.90;;;;;;4592324;19;20078;-34
2022/11/05 01:55:01;;;;;;;18.65;13.77;;;16.30;99.90;;;;;;4593633;19;20351;-34
2022/11/05 01:56:38;;;;;;;16.75;13.52;;;16.30;99.90;;;;;;4591990;19;20018;-33
2022/11/05 01:58:12;;;;;;;15.75;13.13;;;16.30;99.90;;;;;;4591921;19;20015;-33
2022/11/05 01:59:46;;;;;;;17.10;13.32;;;16.30;99.90;;;;;;4592221;19;20014;-33
2022/11/05 02:01:17;;;;;;;16.95;13.02;;;16.30;99.90;;;;;;4591661;19;20074;-32
2022/11/05 02:02:48;;;;;;;19.77;13.90;;;16.30;99.90;;;;;;4591873;19;20460;-32
2022/11/05 02:04:31;;;;;;;18.27;13.90;;;16.30;99.90;;;;;;4591688;19;20038;-34
2022/11/05 02:06:01;;;;;;;;;;;16.30;99.90;;;;;;4592079;19;20010;-32
2022/11/05 02:07:32;;;;;;;17.08;13.23;;;16.30;99.90;;;;;;4592070;19;20552;-33
2022/11/05 02:09:09;;;;;;;;;;;16.30;99.90;;;;;;4593639;19;20038;-32
2022/11/05 02:10:40;;;;;;;16.83;12.77;;;16.30;99.90;;;;;;4591030;19;20264;-34
2022/11/05 02:12:11;;;;;;;18.65;14.45;;;16.30;99.90;;;;;;4591532;19;20422;-34
2022/11/05 02:13:42;;;;;;;19.25;13.45;;;16.30;99.90;;;;;;4591927;19;20086;-32
2022/11/05 02:15:15;;;;;;;17.95;13.50;;;16.30;99.90;;;;;;4592001;19;20486;-34
2022/11/05 02:17:03;;;;;;;18.58;13.52;;;16.30;99.90;;;;;;4592476;19;20006;-33
2022/11/05 02:18:46;;;;;;;16.40;13.07;;;16.30;99.90;;;;;;4591116;19;20024;-34
2022/11/05 02:20:56;;;;;;;18.70;14.55;;;16.30;99.90;;;;;;4591846;19;20010;-32
2022/11/05 02:22:45;;;;;;;19.35;13.93;;;16.30;99.90;;;;;;4589825;19;20066;-33
2022/11/05 02:24:46;;;;;;;18.10;14.18;;;16.30;99.90;;;;;;4590388;19;20023;-35
2022/11/05 02:26:38;;;;;;;18.95;13.80;;;16.30;99.90;;;;;;4590045;19;20086;-33
2022/11/05 02:28:33;;;;;;;22.67;15.15;;;16.30;99.90;;;;;;4590606;19;20007;-34
2022/11/05 02:30:09;;;;;;;18.92;14.15;;;16.30;99.90;;;;;;4589946;19;20011;-34
2022/11/05 02:32:12;;;;;;;20.23;14.77;;;16.30;99.90;;;;;;4589961;19;20019;-33
2022/11/05 02:33:55;;;;;;;17.63;12.95;;;16.30;99.90;;;;;;4589662;19;20488;-35
2022/11/05 02:35:44;;;;;;;16.90;14.00;;;16.30;99.90;;;;;;4588415;19;20090;-32
2022/11/05 02:37:39;;;;;;;19.70;15.75;;;16.30;99.90;;;;;;4590211;19;20018;-32
2022/11/05 02:39:16;;;;;;;19.33;14.65;;;16.30;99.90;;;;;;4589718;19;20015;-32
2022/11/05 02:40:53;;;;;;;17.52;14.65;;;16.30;99.90;;;;;;4589598;19;20539;-32
2022/11/05 02:42:24;;;;;;;19.13;14.38;;;16.30;99.90;;;;;;4589575;19;20010;-34
2022/11/05 02:44:11;;;;;;;20.80;14.73;;;16.30;99.90;;;;;;4589713;19;20035;-33
2022/11/05 02:46:04;;;;;;;19.55;14.88;;;16.30;99.90;;;;;;4589208;19;20461;-34
2022/11/05 02:47:46;;;;;;;19.88;15.98;;;16.30;99.90;;;;;;4589176;19;20017;-33
2022/11/05 02:49:38;;;;;;;18.10;15.07;;;16.30;99.90;;;;;;4589920;19;20011;-32
2022/11/05 02:51:30;;;;;;;19.00;15.50;;;16.30;99.90;;;;;;4588544;19;20002;-34
2022/11/05 02:53:18;;;;;;;18.58;14.13;;;16.30;99.90;;;;;;4589670;19;20043;-33
2022/11/05 02:55:21;;;;;;;22.02;15.38;;;16.30;99.90;;;;;;4589066;19;20011;-35
2022/11/05 02:56:52;;;;;;;21.45;15.45;;;16.30;99.90;;;;;;4588933;19;20011;-32
2022/11/05 02:58:27;;;;;;;20.48;16.08;;;16.30;99.90;;;;;;4588987;19;20010;-33
2022/11/05 03:00:00;;;;;;;18.63;14.70;;;16.30;99.90;;;;;;4589087;19;20460;-32
2022/11/05 03:01:31;;;;;;;17.70;14.68;;;16.30;99.90;;;;;;4589267;19;20007;-35
2022/11/05 03:03:02;;;;;;;20.15;15.98;;;16.30;99.90;;;;;;4589481;19;20023;-32
2022/11/05 03:04:33;;;;;;;21.83;17.08;;;16.30;99.90;;;;;;4588326;19;20014;-33
2022/11/05 03:06:14;;;;;;;21.13;16.60;;;16.30;99.90;;;;;;4589046;19;20010;-32
2022/11/05 03:07:49;;;;;;;21.00;15.85;;;16.30;99.90;;;;;;4589322;19;20551;-35
2022/11/05 03:09:23;;;;;;;20.45;16.10;;;16.30;99.90;;;;;;4589308;19;20010;-34
2022/11/05 03:10:58;;;;;;;18.42;16.13;;;16.30;99.90;;;;;;4587916;19;20010;-35
2022/11/05 03:13:01;;;;;;;20.73;16.60;;;16.30;99.90;;;;;;4588896;19;20006;-34
2022/11/05 03:14:36;;;;;;;24.13;16.83;;;16.30;99.90;;;;;;4588943;19;20011;-34
2022/11/05 03:16:12;;;;;;;21.02;16.33;;;16.30;99.90;;;;;;4589097;19;20053;-32
2022/11/05 03:18:02;;;;;;;19.67;15.88;;;16.30;99.90;;;;;;4586947;19;20019;-35
2022/11/05 03:19:52;;;;;;;22.60;16.75;;;16.30;99.90;;;;;;4588653;19;20021;-34
2022/11/05 03:21:33;;;;;;;19.98;16.10;;;16.30;99.90;;;;;;4589127;19;20435;-34
2022/11/05 03:23:13;;;;;;;21.58;17.05;;;16.30;99.90;;;;;;4589338;19;20362;-33
2022/11/05 03:24:50;;;;;;;21.65;16.30;;;16.30;99.90;;;;;;4589008;19;20014;-34
2022/11/05 03:26:41;;;;;;;24.95;16.75;;;16.30;99.90;;;;;;4588581;19;20014;-32
2022/11/05 03:28:12;;;;;;;21.95;16.25;;;16.30;99.90;;;;;;4588709;19;20031;-34
2022/11/05 03:29:49;;;;;;;21.38;17.67;;;16.30;99.90;;;;;;4588452;19;20007;-34
2022/11/05 03:31:20;;;;;;;20.50;16.92;;;16.30;99.90;;;;;;4588912;19;20074;-35
2022/11/05 03:32:59;;;;;;;19.95;16.48;;;16.30;99.90;;;;;;4588791;19;20018;-34
2022/11/05 03:34:37;;;;;;;23.67;17.63;;;16.30;99.90;;;;;;4587676;19;20022;-33
2022/11/05 03:36:12;;;;;;;20.65;17.92;;;16.30;99.90;;;;;;4588733;19;20015;-34
2022/11/05 03:37:44;;;;;;;20.17;17.35;;;16.30;99.90;;;;;;4588565;19;20062;-32
2022/11/05 03:39:20;;;;;;;22.42;17.27;;;16.30;99.90;;;;;;4588565;19;20014;-35
2022/11/05 03:40:53;;;;;;;22.35;17.75;;;16.30;99.90;;;;;;4588172;19;20030;-32
2022/11/05 03:42:26;;;;;;;23.20;17.88;;;16.30;99.90;;;;;;4588589;19;20011;-32
2022/11/05 03:43:57;;;;;;;21.23;16.92;;;16.30;99.90;;;;;;4588251;19;20010;-33
2022/11/05 03:45:32;;;;;;;;;;;16.30;99.90;;;;;;4589717;19;20066;-34
2022/11/05 03:47:12;;;;;;;22.55;17.23;;;16.30;99.90;;;;;;4588386;19;19960;-33
2022/11/05 03:48:46;;;;;;;23.98;17.65;;;16.30;99.90;;;;;;4588050;19;20497;-35
2022/11/05 03:50:36;;;;;;;22.10;17.00;;;16.30;99.90;;;;;;4587821;19;20021;-35
2022/11/05 03:52:13;;;;;;;22.73;18.35;;;16.30;99.90;;;;;;4587941;19;20007;-34
2022/11/05 03:53:54;;;;;;;21.05;17.55;;;16.30;99.90;;;;;;4587213;19;20014;-32
2022/11/05 03:55:30;;;;;;;20.55;16.95;;;16.30;99.90;;;;;;4588292;19;20488;-32
2022/11/05 03:57:01;;;;;;;22.25;17.63;;;16.30;99.90;;;;;;4587904;19;20025;-32
2022/11/05 03:58:32;;;;;;;23.08;17.40;;;16.30;99.90;;;;;;4588602;19;20095;-32
2022/11/05 04:00:06;;;;;;;23.20;18.75;;;16.30;99.90;;;;;;4587488;19;20062;-32
2022/11/05 04:01:37;;;;;;;21.45;17.73;;;16.30;99.90;;;;;;4588010;19;20006;-33
2022/11/05 04:03:09;;;;;;;20.60;17.60;;;16.30;99.90;;;;;;4588322;19;20017;-34
2022/11/05 04:04:40;;;;;;;20.42;18.13;;;16.30;99.90;;;;;;4587407;19;20481;-32
2022/11/05 04:13:29;;;;;;;22.77;18.58;;;16.30;99.90;;;;;;4589414;19;20014;-32
2022/11/05 04:15:00;;;;;;;24.42;19.17;;;16.30;99.90;;;;;;4589512;19;20011;-32
2022/11/05 04:18:21;;;;;;;23.98;18.60;;;16.30;99.90;;;;;;4590000;19;20038;-33
2022/11/05 04:25:21;;;;;;;22.50;18.55;;;16.30;99.90;;;;;;4590359;19;20014;-33
2022/11/05 04:26:53;;;;;;;22.85;17.58;;;16.30;99.90;;;;;;4588940;19;20382;-33
2022/11/05 04:30:17;;;;;;;24.58;19.98;;;16.30;99.90;;;;;;4589637;19;20480;-32
2022/11/05 04:30:18;;;;;;;22.17;18.83;;;16.30;99.90;;;;;;4589239;19;20409;-33
2022/11/05 04:31:49;;;;;;;25.20;19.70;;;16.30;99.90;;;;;;4589244;19;20011;-33
2022/11/05 04:33:20;;;;;;;22.52;18.70;;;16.30;99.90;;;;;;4588339;19;20082;-32
2022/11/05 04:34:51;;;;;;;22.75;18.10;;;16.30;99.90;;;;;;4588196;19;20503;-32
2022/11/05 04:36:22;;;;;;;24.30;19.13;;;16.30;99.90;;;;;;4589126;19;20006;-34
2022/11/05 04:37:54;;;;;;;25.52;19.35;;;16.30;99.90;;;;;;4589918;19;20007;-34
2022/11/05 04:39:25;;;;;;;24.90;18.55;;;16.30;99.90;;;;;;4590107;19;20027;-34
2022/11/05 04:41:10;;;;;;;22.63;18.20;;;16.30;99.90;;;;;;4589471;19;20014;-34
2022/11/05 04:42:42;;;;;;;25.10;19.25;;;16.30;99.90;;;;;;4588671;19;20011;-32
2022/11/05 04:44:14;;;;;;;25.92;19.48;;;16.30;99.90;;;;;;4588932;19;20014;-34
2022/11/05 04:45:45;;;;;;;25.80;20.23;;;16.30;99.90;;;;;;4589670;19;20026;-33
2022/11/05 04:47:16;;;;;;;23.05;19.67;;;16.30;99.90;;;;;;4589230;19;20078;-34
2022/11/05 04:48:47;;;;;;;24.10;19.98;;;16.30;99.90;;;;;;4589351;19;20015;-32
2022/11/05 04:50:19;;;;;;;26.95;18.83;;;16.30;99.90;;;;;;4586268;19;20500;-32
2022/11/05 04:51:49;;;;;;;22.33;18.73;;;16.30;99.90;;;;;;4588921;19;20091;-34
2022/11/05 04:53:21;;;;;;;29.92;21.48;;;16.30;99.90;;;;;;4588759;19;20022;-33
2022/11/05 04:54:52;;;;;;;27.65;21.33;;;16.30;99.90;;;;;;4589725;19;20018;-33
2022/11/05 04:56:23;;;;;;;26.65;20.23;;;16.30;99.90;;;;;;4587948;19;20385;-33
2022/11/05 04:57:54;;;;;;;24.83;19.73;;;16.30;99.90;;;;;;4588960;19;20024;-32
2022/11/05 04:59:26;;;;;;;24.05;18.65;;;16.30;99.90;;;;;;4589071;19;20038;-32
2022/11/05 05:00:57;;;;;;;24.58;19.55;;;16.30;99.90;;;;;;4589581;19;20002;-35
2022/11/05 05:02:28;;;;;;;26.42;20.67;;;16.30;99.90;;;;;;4589237;19;20038;-33
2022/11/05 05:03:59;;;;;;;22.65;19.08;;;16.30;99.90;;;;;;4588200;19;20391;-33
2022/11/05 05:05:30;;;;;;;21.80;19.10;;;16.30;99.90;;;;;;4586485;19;20010;-34
2022/11/05 05:07:01;;;;;;;28.23;19.33;;;16.30;99.90;;;;;;4588778;19;20011;-35
2022/11/05 05:08:32;;;;;;;23.15;17.98;;;16.30;99.90;;;;;;4587999;19;20357;-32
2022/11/05 05:10:04;;;;;;;23.70;19.83;;;16.30;99.90;;;;;;4590449;19;20460;-32
2022/11/05 05:11:36;;;;;;;24.25;19.88;;;16.30;99.90;;;;;;4588807;19;20026;-34
2022/11/05 05:13:08;;;;;;;26.83;19.67;;;16.30;99.90;;;;;;4588526;19;20006;-34
2022/11/05 05:14:39;;;;;;;23.85;19.23;;;16.30;99.90;;;;;;4587587;19;20028;-33
2022/11/05 05:16:15;;;;;;;25.58;20.23;;;16.30;99.90;;;;;;4588121;19;20011;-33
2022/11/05 05:17:50;;;;;;;24.67;18.98;;;16.30;99.90;;;;;;4588471;19;20010;-34
2022/11/05 05:19:23;;;;;;;25.15;19.75;;;16.30;99.90;;;;;;4588758;19;20399;-34
2022/11/05 05:22:52;;;;;;;28.63;20.48;;;16.30;99.90;;;;;;4587383;19;20038;-34
2022/11/05 05:24:23;;;;;;;25.30;19.27;;;16.30;99.90;;;;;;4587458;19;20428;-34
2022/11/05 05:25:57;;;;;;;28.38;20.55;;;16.30;99.90;;;;;;4588756;19;20015;-32
2022/11/05 05:27:28;;;;;;;27.98;20.75;;;16.30;99.90;;;;;;4587445;19;20010;-32
2022/11/05 05:28:59;;;;;;;29.52;21.42;;;16.30;99.90;;;;;;4588947;19;20017;-33
2022/11/05 05:30:30;;;;;;;27.70;20.63;;;16.30;99.90;;;;;;4587408;19;20018;-34
2022/11/05 05:32:01;;;;;;;26.42;21.13;;;16.30;99.90;;;;;;4589212;19;20334;-32
2022/11/05 05:33:32;;;;;;;27.25;19.77;;;16.30;99.90;;;;;;4589259;19;20030;-33
2022/11/05 05:35:04;;;;;;;32.13;21.98;;;16.20;99.90;;;;;;4588447;19;20015;-32
2022/11/05 05:36:35;;;;;;;29.00;21.77;;;16.20;99.90;;;;;;4589399;19;20022;-32
2022/11/05 05:38:06;;;;;;;29.13;20.58;;;16.30;99.90;;;;;;4589125;19;20014;-34
2022/11/05 05:39:37;;;;;;;28.13;20.77;;;16.20;99.90;;;;;;4587734;19;20015;-34
2022/11/05 05:41:08;;;;;;;32.65;22.30;;;16.20;99.90;;;;;;4591318;19;20014;-33
2022/11/05 05:42:40;;;;;;;29.05;22.05;;;16.30;99.90;;;;;;4593512;19;20010;-34
2022/11/05 05:44:11;;;;;;;33.17;22.98;;;16.30;99.90;;;;;;4592759;19;20077;-32
2022/11/05 05:45:42;;;;;;;36.22;24.33;;;16.30;99.90;;;;;;4591902;19;20391;-32
2022/11/05 05:47:13;;;;;;;42.65;33.63;;;16.40;99.90;;;;;;4592060;19;20070;-32
2022/11/05 05:48:48;;;;;;;38.53;29.60;;;16.40;99.90;;;;;;4590448;19;20334;-34
2022/11/05 05:50:19;;;;;;;41.35;33.00;;;16.30;99.90;;;;;;4591919;19;20013;-34
2022/11/05 05:51:50;;;;;;;;;;;16.30;99.90;;;;;;4590668;19;20338;-35
2022/11/05 05:53:21;;;;;;;47.30;32.60;;;16.30;99.90;;;;;;4593535;19;19936;-32
2022/11/05 05:54:52;;;;;;;43.20;28.40;;;16.30;99.90;;;;;;4592603;19;20337;-34
2022/11/05 05:56:23;;;;;;;38.42;25.65;;;16.30;99.90;;;;;;4592162;19;20034;-33
2022/11/05 05:57:55;;;;;;;36.70;25.50;;;16.30;99.90;;;;;;4591051;19;20010;-34
2022/11/05 05:59:26;;;;;;;32.70;23.90;;;16.30;99.90;;;;;;4591930;19;20015;-32
2022/11/05 06:01:05;;;;;;;35.22;25.70;;;16.40;99.90;;;;;;4592770;19;20341;-34
2022/11/05 06:02:37;;;;;;;32.60;24.80;;;16.40;99.90;;;;;;4591365;19;20019;-33
2022/11/05 06:04:09;;;;;;;36.22;24.55;;;16.40;99.90;;;;;;4590912;19;20033;-34
2022/11/05 06:05:40;;;;;;;42.38;27.25;;;16.40;99.90;;;;;;4589299;19;20026;-35
2022/11/05 06:07:11;;;;;;;47.85;30.13;;;16.40;99.90;;;;;;4591306;19;20014;-32
2022/11/05 06:08:42;;;;;;;43.35;29.88;;;16.40;99.90;;;;;;4591564;19;20477;-33
2022/11/05 06:10:13;;;;;;;57.67;34.33;;;16.40;99.90;;;;;;4590877;19;20451;-33
2022/11/05 06:11:45;;;;;;;59.53;36.25;;;16.40;99.90;;;;;;4591250;19;20037;-33
2022/11/05 06:13:16;;;;;;;65.30;41.45;;;16.40;99.90;;;;;;4591193;19;20010;-32
2022/11/05 06:14:47;;;;;;;59.65;37.65;;;16.40;99.90;;;;;;4590781;19;20011;-34
2022/11/05 06:16:18;;;;;;;54.72;35.03;;;16.40;99.90;;;;;;4591533;19;20014;-33
2022/11/05 06:17:49;;;;;;;72.82;42.10;;;16.40;99.90;;;;;;4592142;19;20017;-36
2022/11/05 06:19:20;;;;;;;67.70;41.05;;;16.40;99.90;;;;;;4591811;19;20050;-32
2022/11/05 06:20:52;;;;;;;63.33;38.80;;;16.40;99.90;;;;;;4593132;19;20035;-33
2022/11/05 06:22:23;;;;;;;59.13;39.00;;;16.40;99.90;;;;;;4592971;19;20566;-32
2022/11/05 06:23:55;;;;;;;54.28;35.90;;;16.40;99.90;;;;;;4592585;19;20046;-33
2022/11/05 06:25:27;;;;;;;44.47;33.13;;;16.40;99.90;;;;;;4590875;19;20011;-34
2022/11/05 06:26:58;;;;;;;42.75;29.42;;;16.40;99.90;;;;;;4590651;19;20014;-34
2022/11/05 06:28:29;;;;;;;43.08;28.88;;;16.50;99.90;;;;;;4592733;19;20396;-33
2022/11/05 06:30:03;;;;;;;64.28;38.40;;;16.50;99.90;;;;;;4591615;19;20465;-33
2022/11/05 06:31:35;;;;;;;67.88;38.65;;;16.60;99.90;;;;;;4592277;19;20022;-32
2022/11/05 06:33:06;;;;;;;57.47;36.65;;;16.70;99.90;;;;;;4592395;19;20019;-33
2022/11/05 06:34:37;;;;;;;49.85;33.30;;;16.80;99.90;;;;;;4591584;19;20031;-34
2022/11/05 06:36:13;;;;;;;50.83;32.60;;;16.80;99.90;;;;;;4590839;19;20070;-34
2022/11/05 06:37:44;;;;;;;52.72;35.25;;;16.90;99.90;;;;;;4589514;19;20373;-34
2022/11/05 06:39:15;;;;;;;53.72;34.63;;;17.00;99.90;;;;;;4590338;19;20098;-32
2022/11/05 06:40:46;;;;;;;41.13;30.08;;;17.00;99.90;;;;;;4590155;19;20026;-32
2022/11/05 06:42:17;;;;;;;38.22;29.55;;;17.00;99.90;;;;;;4590457;19;20023;-34
2022/11/05 06:43:48;;;;;;;37.63;27.45;;;17.00;99.90;;;;;;4590827;19;20006;-33
2022/11/05 06:45:20;;;;;;;34.30;25.80;;;17.00;99.90;;;;;;4590582;19;20561;-34
2022/11/05 06:46:51;;;;;;;35.80;27.65;;;17.00;99.90;;;;;;4589917;19;20018;-32
2022/11/05 06:48:24;;;;;;;40.60;28.52;;;17.00;99.90;;;;;;4589682;19;20006;-34
2022/11/05 06:49:56;;;;;;;35.20;26.02;;;17.10;99.90;;;;;;4588927;19;20010;-32
2022/11/05 06:51:27;;;;;;;33.63;25.25;;;17.20;99.90;;;;;;4588241;19;20010;-34
2022/11/05 06:52:59;;;;;;;35.10;25.85;;;17.20;99.90;;;;;;4586361;19;20015;-32
2022/11/05 06:54:30;;;;;;;33.60;26.00;;;17.30;99.90;;;;;;4588432;19;20014;-36
2022/11/05 06:56:03;;;;;;;33.58;26.83;;;17.30;99.90;;;;;;4590748;19;20014;-34
2022/11/05 06:57:36;;;;;;;37.65;29.77;;;17.30;99.90;;;;;;4590104;19;20533;-33
2022/11/05 06:59:07;;;;;;;36.30;29.63;;;17.40;99.90;;;;;;4589708;19;20465;-35
2022/11/05 07:00:38;;;;;;;36.63;28.75;;;17.30;99.90;;;;;;4588984;19;20031;-32
2022/11/05 07:02:10;;;;;;;35.83;27.55;;;17.20;99.90;;;;;;4588803;19;20011;-33
2022/11/05 07:03:43;;;;;;;33.88;26.63;;;17.30;99.90;;;;;;4588786;19;20011;-34
2022/11/05 07:05:15;;;;;;;35.78;28.38;;;17.20;99.90;;;;;;4587018;19;20040;-33
2022/11/05 07:06:46;;;;;;;31.80;25.42;;;17.20;99.90;;;;;;4588362;19;20019;-31
2022/11/05 07:08:17;;;;;;;34.42;25.80;;;17.10;99.90;;;;;;4590780;19;20029;-33
2022/11/05 07:09:51;;;;;;;32.85;24.77;;;17.10;99.90;;;;;;4590111;19;20135;-33
2022/11/05 07:11:22;;;;;;;32.72;24.05;;;17.00;99.90;;;;;;4589667;19;20575;-34
2022/11/05 07:12:53;;;;;;;32.38;25.17;;;17.00;99.90;;;;;;4591201;19;20010;-32
2022/11/05 07:14:25;;;;;;;34.30;24.40;;;16.90;99.90;;;;;;4591816;19;20032;-34
2022/11/05 07:15:56;;;;;;;32.15;24.70;;;16.90;99.90;;;;;;4591872;19;20014;-33
2022/11/05 07:17:27;;;;;;;32.67;24.92;;;16.90;99.90;;;;;;4589584;19;20018;-33
2022/11/05 07:18:58;;;;;;;29.60;23.15;;;16.80;99.90;;;;;;4590370;19;20046;-33
2022/11/05 07:20:30;;;;;;;28.40;22.23;;;16.80;99.90;;;;;;4591092;19;20018;-34
2022/11/05 07:22:03;;;;;;;29.55;23.65;;;16.80;99.90;;;;;;4590956;19;20014;-33
2022/11/05 07:23:35;;;;;;;31.85;23.80;;;16.80;99.90;;;;;;4590990;19;20006;-33
2022/11/05 07:25:06;;;;;;;31.20;25.10;;;16.80;99.90;;;;;;4590315;19;20014;-34
2022/11/05 07:26:37;;;;;;;30.10;23.50;;;16.80;99.90;;;;;;4590124;19;20010;-33
2022/11/05 07:28:09;;;;;;;26.90;21.58;;;16.80;99.90;;;;;;4590390;19;20015;-34
2022/11/05 07:29:41;;;;;;;28.20;22.55;;;16.80;99.90;;;;;;4590263;19;20034;-33
2022/11/05 07:31:12;;;;;;;33.97;23.10;;;16.90;99.90;;;;;;4588890;19;20007;-32
2022/11/05 07:32:43;;;;;;;29.75;24.27;;;16.90;99.90;;;;;;4590393;19;20027;-32
2022/11/05 07:34:17;;;;;;;25.52;21.02;;;16.90;99.90;;;;;;4590711;19;20397;-36
2022/11/05 07:35:48;;;;;;;25.25;20.30;;;16.90;99.90;;;;;;4590603;19;20027;-35
2022/11/05 07:37:19;;;;;;;24.88;21.35;;;16.90;99.90;;;;;;4590855;19;20014;-33
2022/11/05 07:38:50;;;;;;;26.33;22.00;;;17.00;99.90;;;;;;4590633;19;20022;-33
2022/11/05 07:40:26;;;;;;;26.73;21.13;;;17.00;99.90;;;;;;4590307;19;20007;-35
2022/11/05 07:41:57;;;;;;;28.00;21.45;;;17.00;99.90;;;;;;4588880;19;20010;-32
2022/11/05 07:43:29;;;;;;;26.83;20.88;;;16.90;99.90;;;;;;4590503;19;20077;-33
2022/11/05 07:45:01;;;;;;;26.52;20.70;;;17.00;99.90;;;;;;4588561;19;20016;-36
2022/11/05 07:46:32;;;;;;;26.35;21.27;;;17.00;99.90;;;;;;4590112;19;20048;-32
2022/11/05 07:48:03;;;;;;;25.92;19.42;;;16.90;99.90;;;;;;4588787;19;20521;-33
2022/11/05 07:49:34;;;;;;;22.00;18.58;;;16.90;99.90;;;;;;4588136;19;20098;-33
2022/11/05 07:51:06;;;;;;;23.95;19.23;;;16.90;99.90;;;;;;4589256;19;20014;-35
2022/11/05 07:52:37;;;;;;;22.63;18.77;;;16.90;99.90;;;;;;4590034;19;20007;-36
2022/11/05 07:54:08;;;;;;;22.20;17.85;;;16.80;99.90;;;;;;4590505;19;20023;-33
2022/11/05 07:55:40;;;;;;;19.65;17.17;;;16.80;99.90;;;;;;4589249;19;20018;-34
2022/11/05 07:57:11;;;;;;;;;;;16.80;99.90;;;;;;4590086;19;20053;-32
2022/11/05 07:58:42;;;;;;;20.25;17.10;;;16.80;99.90;;;;;;4590122;19;19935;-32
2022/11/05 08:00:15;;;;;;;20.50;17.08;;;16.80;99.90;;;;;;4588775;19;20024;-32
2022/11/05 08:01:46;;;;;;;22.00;15.77;;;16.80;99.90;;;;;;4589482;19;20014;-34
2022/11/05 08:03:18;;;;;;;19.85;16.35;;;16.70;99.90;;;;;;4587061;19;20038;-34
2022/11/05 08:04:49;;;;;;;17.88;15.75;;;16.70;99.90;;;;;;4588061;19;20025;-35
2022/11/05 08:06:20;;;;;;;18.23;15.80;;;16.70;99.90;;;;;;4589017;19;20035;-32
2022/11/05 08:07:55;;;;;;;21.05;17.10;;;16.70;99.90;;;;;;4590351;19;20015;-35
2022/11/05 08:09:26;;;;;;;19.83;16.15;;;16.70;99.90;;;;;;4591110;19;20452;-32
2022/11/05 08:11:04;;;;;;;17.95;15.88;;;16.70;99.90;;;;;;4591733;19;20018;-32
2022/11/05 08:12:35;;;;;;;18.13;14.98;;;16.70;99.90;;;;;;4592541;19;20043;-32
2022/11/05 08:14:08;;;;;;;20.20;15.23;;;16.70;99.90;;;;;;4591723;19;20014;-33
2022/11/05 08:15:41;;;;;;;20.08;15.88;;;16.70;99.90;;;;;;4592229;19;20035;-33
2022/11/05 08:17:12;;;;;;;18.13;15.30;;;16.70;99.90;;;;;;4592633;19;20035;-32
2022/11/05 08:18:43;;;;;;;19.20;15.05;;;16.70;99.90;;;;;;4591537;19;20417;-32
2022/11/05 08:20:15;;;;;;;;;;;16.70;99.90;;;;;;4591744;19;20022;-33
2022/11/05 08:21:48;;;;;;;17.17;13.40;;;16.80;99.90;;;;;;4589393;19;19923;-32
2022/11/05 08:23:19;;;;;;;17.25;13.95;;;16.70;99.90;;;;;;4589282;19;20014;-32
2022/11/05 08:24:51;;;;;;;20.27;14.48;;;16.70;99.90;;;;;;4589802;19;20077;-34
2022/11/05 08:26:35;;;;;;;17.10;14.95;;;16.70;99.90;;;;;;4588212;19;20350;-32
2022/11/05 08:28:11;;;;;;;17.27;14.20;;;16.70;99.90;;;;;;4589873;19;20074;-32
2022/11/05 08:29:42;;;;;;;17.45;14.40;;;16.70;99.90;;;;;;4588880;19;20027;-33
2022/11/05 08:31:14;;;;;;;18.45;15.30;;;16.70;99.90;;;;;;4588429;19;20011;-32
2022/11/05 08:32:45;;;;;;;17.75;15.77;;;16.70;99.90;;;;;;4589487;19;20042;-35
2022/11/05 08:34:16;;;;;;;19.88;17.17;;;16.20;99.90;;;;;;4589716;19;20464;-33
2022/11/05 08:35:48;;;;;;;21.27;17.40;;;15.10;99.90;;;;;;4589976;19;20018;-33
2022/11/05 08:37:20;;;;;;;20.70;17.25;;;14.50;99.90;;;;;;4589332;19;20010;-33
2022/11/05 08:38:51;;;;;;;21.13;18.13;;;14.10;99.90;;;;;;4589318;19;20010;-32